Winter, Wisconsin
Current Conditions -  °F | °C
As of 6:55 AM on Friday 19 Dec 2014 (Local Time) from KRCX Reporting Station
Overcast Overcast  
Wind Chill: 23°   Ceiling: 800
Heat Index: 23°   Visibility: 10mi
Dew Point: 20°   Wind: 3mph
Humidity: 91%   Direction: 230°SW
Pressure: 30.27"   Gusts: NA
Location:  45.82°N, 91.01°W
Report Text: KRCX 191255Z AUTO 23003KT 10SM OVC008 M05/M06 A3027 RMK AO2 T10521064
Loading
Personal Weather Stations






























Interactive Weather Map New forecast layout! Learn more

10-Day Weather Forecast

Advertisements
Track Severe Weather on mobile